Time;durP1;ratioP1;P1;durP2;ratioP2;P2;SDS_P1;SDS_P2;PMS_P1;PMS_P2;Temp;Humidity;BMP_temperature;BMP_pressure;BME280_temperature;BME280_humidity;BME280_pressure;Samples;Min_cycle;Max_cycle;Signal;HPM_P1;HPM_P2
2022/12/10 00:00:20;;;;;;;8.35;6.75;;;;;;;15.33;53.21;100853.06;6184770;23;20008;-84
2022/12/10 00:08:25;;;;;;;9.32;6.90;;;;;;;15.33;53.35;100850.47;6322861;22;20013;-87
2022/12/10 01:19:11;;;;;;;5.95;4.63;;;;;;;15.27;53.37;100875.53;6304601;22;20028;-84
2022/12/10 02:58:47;;;;;;;6.32;5.35;;;;;;;15.18;52.76;100897.97;6309291;22;20087;-86
2022/12/10 03:06:03;;;;;;;5.65;5.05;;;;;;;15.17;52.99;100892.78;6303571;22;20031;-85
2022/12/10 03:09:06;;;;;;;6.00;5.05;;;;;;;15.17;53.10;100896.22;6294159;22;20019;-80
2022/12/10 03:11:33;;;;;;;5.72;5.05;;;;;;;15.17;52.91;100895.38;6273445;22;20038;-81
2022/12/10 03:14:24;;;;;;;7.30;5.50;;;;;;;15.17;53.01;100900.56;6299641;22;20459;-81
2022/12/10 03:16:56;;;;;;;5.25;4.38;;;;;;;15.16;53.00;100898.84;6269258;22;20015;-80
2022/12/10 03:19:33;;;;;;;5.40;4.90;;;;;;;15.17;53.17;100897.97;6268554;22;20004;-80
2022/12/10 03:22:05;;;;;;;4.82;4.35;;;;;;;15.16;53.01;100898.84;6297033;22;19996;-81
2022/12/10 03:24:33;;;;;;;5.85;5.07;;;;;;;15.15;52.92;100899.69;6246189;22;20015;-81
2022/12/10 03:27:05;;;;;;;6.00;4.82;;;;;;;15.15;52.85;100897.09;6297923;22;20002;-81
2022/12/10 03:30:02;;;;;;;5.70;4.95;;;;;;;15.16;52.97;100909.22;6298837;22;20012;-81
2022/12/10 03:36:04;;;;;;;5.57;5.00;;;;;;;15.14;53.19;100898.84;6298815;22;20026;-81
2022/12/10 03:38:33;;;;;;;6.50;5.28;;;;;;;15.14;52.82;100897.97;6292243;22;20007;-81
2022/12/10 03:40:59;;;;;;;5.22;4.72;;;;;;;15.16;53.04;100901.44;6268595;22;20000;-81
2022/12/10 03:43:33;;;;;;;5.65;5.07;;;;;;;15.15;53.06;100897.09;6269324;22;20006;-81
2022/12/10 03:46:16;;;;;;;5.60;5.00;;;;;;;15.15;52.93;100903.13;6296244;22;19999;-81
2022/12/10 03:48:44;;;;;;;5.25;4.75;;;;;;;15.15;53.14;100907.47;6294832;22;19999;-81
2022/12/10 03:51:10;;;;;;;5.28;4.78;;;;;;;15.14;52.82;100897.97;6294046;22;19988;-81
2022/12/10 03:53:40;;;;;;;5.07;4.57;;;;;;;15.13;52.99;100904.88;6263259;22;20004;-81
2022/12/10 03:56:26;;;;;;;4.95;4.45;;;;;;;15.13;53.03;100904.00;6267313;22;20091;-81
2022/12/10 03:58:59;;;;;;;5.43;4.60;;;;;;;15.13;53.02;100902.28;6298330;22;20010;-82
2022/12/10 04:01:32;;;;;;;5.28;4.68;;;;;;;15.13;52.80;100902.28;6250975;22;20057;-81
2022/12/10 04:04:11;;;;;;;4.60;4.10;;;;;;;15.12;53.02;100903.16;6299040;22;19999;-81
2022/12/10 04:06:43;;;;;;;4.70;4.30;;;;;;;15.14;53.19;100905.75;6307940;22;20003;-82
2022/12/10 04:09:13;;;;;;;4.90;4.30;;;;;;;15.13;53.10;100899.69;6304513;22;20058;-81
2022/12/10 04:12:09;;;;;;;5.15;4.38;;;;;;;15.14;53.13;100903.16;6328108;22;20007;-81
2022/12/10 04:17:42;;;;;;;4.20;3.80;;;;;;;15.14;53.35;100898.84;6310676;22;20348;-82
2022/12/10 04:26:51;;;;;;;4.47;3.88;;;;;;;15.14;53.29;100896.25;6330238;22;20030;-81
2022/12/10 04:32:34;;;;;;;4.18;3.67;;;;;;;15.16;53.32;100901.44;6332345;22;20018;-81
2022/12/10 04:35:06;;;;;;;3.95;3.55;;;;;;;15.17;53.56;100893.63;6318991;22;20014;-81
2022/12/10 04:38:10;;;;;;;3.38;3.08;;;;;;;15.18;53.46;100905.75;6299854;22;20003;-81
2022/12/10 04:40:40;;;;;;;3.88;3.20;;;;;;;15.17;53.56;100906.59;6302433;22;20003;-81
2022/12/10 04:43:11;;;;;;;3.70;3.20;;;;;;;15.18;53.50;100897.97;6334957;22;20015;-82
2022/12/10 04:45:37;;;;;;;4.38;3.70;;;;;;;15.19;53.35;100898.84;6309520;22;20011;-81
2022/12/10 04:48:04;;;;;;;3.92;3.53;;;;;;;15.17;53.55;100896.22;6284981;22;20004;-81
2022/12/10 04:50:30;;;;;;;3.80;3.33;;;;;;;15.18;53.46;100897.13;6333336;22;20049;-81
2022/12/10 04:52:57;;;;;;;3.75;3.33;;;;;;;15.17;53.47;100900.56;6331288;22;20003;-81
2022/12/10 04:55:31;;;;;;;3.60;3.13;;;;;;;15.16;53.18;100889.34;6328746;22;20003;-81
2022/12/10 04:57:58;;;;;;;;;;;;;;;15.17;53.34;100895.38;6275707;22;20007;-81
2022/12/10 05:00:30;;;;;;;3.75;3.28;;;;;;;15.17;53.50;100905.75;6327489;22;19932;-81
2022/12/10 05:02:58;;;;;;;3.72;3.33;;;;;;;15.16;53.47;100909.22;6276460;22;20003;-81
2022/12/10 05:05:26;;;;;;;4.53;3.60;;;;;;;15.16;53.26;100912.66;6300913;22;20004;-81
2022/12/10 05:49:15;;;;;;;3.47;3.00;;;;;;;15.17;53.58;100900.56;6326476;22;20102;-85
2022/12/10 06:40:45;;;;;;;3.00;2.70;;;;;;;15.19;53.85;100935.97;6288977;22;20021;-85
2022/12/10 06:44:01;;;;;;;3.22;2.92;;;;;;;15.21;53.68;100943.78;6255180;22;20019;-85
2022/12/10 07:41:38;;;;;;;3.08;2.40;;;;;;;15.21;53.82;100967.97;6297997;22;20033;-86
2022/12/10 07:54:23;;;;;;;10.57;4.28;;;;;;;15.66;53.93;100977.53;6242881;23;20023;-81
2022/12/10 08:14:25;;;;;;;11.52;4.18;;;;;;;15.70;53.78;100977.56;6288196;22;20601;-82
2022/12/10 08:16:54;;;;;;;6.53;4.05;;;;;;;15.69;53.96;100988.78;6252635;23;20016;-83
2022/12/10 08:22:43;;;;;;;5.85;3.85;;;;;;;15.69;53.84;100981.00;6269494;23;20023;-82
2022/12/10 08:25:10;;;;;;;7.13;4.40;;;;;;;15.68;53.74;100981.00;6235664;23;20012;-82
2022/12/10 08:27:35;;;;;;;7.97;4.18;;;;;;;15.69;53.75;100993.13;6228359;23;20086;-81
2022/12/10 08:36:52;;;;;;;8.13;4.32;;;;;;;15.68;53.83;101001.75;6257646;22;20031;-80
2022/12/10 08:39:19;;;;;;;7.38;4.38;;;;;;;15.67;53.54;101010.41;6204520;23;20455;-81
2022/12/10 08:41:47;;;;;;;6.15;4.22;;;;;;;15.67;53.50;101011.28;6234145;23;20034;-82
2022/12/10 08:44:14;;;;;;;7.82;4.10;;;;;;;15.66;53.74;101019.94;6213409;23;20008;-83
2022/12/10 08:46:43;;;;;;;6.18;4.00;;;;;;;15.66;53.50;101029.41;6239236;22;20143;-82
2022/12/10 08:49:28;;;;;;;5.65;4.57;;;;;;;15.67;53.37;101025.97;6266411;22;20103;-83
2022/12/10 08:55:27;;;;;;;6.20;4.25;;;;;;;15.68;53.70;101040.66;6293241;22;20019;-82
2022/12/10 08:58:13;;;;;;;9.82;4.28;;;;;;;15.67;53.28;101034.63;6280650;22;20015;-83
2022/12/10 09:00:54;;;;;;;6.28;4.57;;;;;;;15.67;53.30;101037.22;6202239;23;20004;-83
2022/12/10 09:06:16;;;;;;;6.30;4.57;;;;;;;15.65;53.32;101033.75;6172401;23;20036;-82
2022/12/10 09:08:43;;;;;;;5.18;4.13;;;;;;;15.64;53.02;101045.00;6145820;23;20450;-82
2022/12/10 09:11:36;;;;;;;7.60;4.60;;;;;;;15.64;53.20;101038.06;6136356;23;20050;-83
2022/12/10 09:14:04;;;;;;;6.57;4.45;;;;;;;15.64;53.14;101043.28;6136573;23;20006;-82
2022/12/10 09:16:43;;;;;;;8.60;4.38;;;;;;;15.64;52.86;101050.19;6110168;23;20024;-82
2022/12/10 09:19:09;;;;;;;5.70;4.60;;;;;;;15.63;52.99;101051.94;6085739;23;20057;-82
2022/12/10 09:21:35;;;;;;;5.18;4.32;;;;;;;15.63;53.40;101046.75;6136311;23;20006;-82
2022/12/10 09:24:01;;;;;;;6.15;4.50;;;;;;;15.63;53.06;101044.16;6115173;23;20006;-81
2022/12/10 09:26:26;;;;;;;5.75;4.05;;;;;;;15.63;53.13;101044.16;6139357;23;20111;-81
2022/12/10 09:28:52;;;;;;;6.45;4.15;;;;;;;15.63;52.85;101051.03;6115973;23;20018;-82
2022/12/10 09:31:19;;;;;;;6.07;4.50;;;;;;;15.64;52.95;101055.38;6139634;23;20013;-81
2022/12/10 09:33:46;;;;;;;5.97;4.97;;;;;;;15.64;52.76;101056.25;6133035;23;20014;-80
2022/12/10 10:06:28;;;;;;;10.20;5.63;;;;;;;15.32;52.13;101061.34;6274818;22;20023;-79
2022/12/10 10:08:57;;;;;;;11.00;4.97;;;;;;;15.35;52.28;101066.56;6225670;22;20039;-79
2022/12/10 10:11:28;;;;;;;7.72;5.45;;;;;;;15.38;52.07;101066.53;6252573;22;20424;-78
2022/12/10 10:14:11;;;;;;;9.20;4.72;;;;;;;15.38;52.54;101074.31;6251425;22;20006;-79
2022/12/10 10:16:52;;;;;;;7.55;4.95;;;;;;;15.37;52.31;101074.31;6250460;22;20000;-76
2022/12/10 10:19:30;;;;;;;7.03;4.30;;;;;;;15.37;52.38;101070.00;6278183;22;20006;-81
2022/12/10 10:21:55;;;;;;;8.63;4.63;;;;;;;15.39;52.69;101070.00;6251661;22;20004;-80
2022/12/10 10:24:42;;;;;;;7.55;4.93;;;;;;;15.40;52.64;101071.75;6226666;22;20034;-81
2022/12/10 10:27:16;;;;;;;12.95;4.38;;;;;;;15.42;52.62;101065.69;6250510;22;20034;-79
2022/12/10 10:29:44;;;;;;;7.60;4.97;;;;;;;15.43;52.50;101072.59;6250624;22;20004;-79
2022/12/10 10:32:14;;;;;;;7.63;4.22;;;;;;;15.43;52.47;101075.19;6253082;22;20008;-80
2022/12/10 10:34:40;;;;;;;6.90;4.90;;;;;;;15.44;52.40;101070.91;6283041;22;20014;-80
2022/12/10 10:37:07;;;;;;;7.82;4.40;;;;;;;15.42;52.54;101073.47;6254932;22;20015;-80
2022/12/10 10:39:35;;;;;;;6.57;4.55;;;;;;;15.43;52.59;101074.34;6255026;22;20450;-80
2022/12/10 10:42:09;;;;;;;7.43;4.45;;;;;;;15.42;52.53;101068.28;6228710;22;20003;-82
2022/12/10 10:44:37;;;;;;;7.00;4.03;;;;;;;15.42;52.52;101075.22;6251470;22;20076;-80
2022/12/10 10:47:24;;;;;;;6.47;4.47;;;;;;;15.43;52.58;101074.34;6251347;22;20053;-80
2022/12/10 10:49:49;;;;;;;7.93;4.10;;;;;;;15.43;52.53;101069.16;6250893;22;20008;-80
2022/12/10 10:52:16;;;;;;;5.03;4.30;;;;;;;15.44;52.65;101070.91;6200290;22;20328;-80
2022/12/10 10:54:47;;;;;;;7.50;4.25;;;;;;;15.43;52.74;101069.16;6251412;22;20015;-80
2022/12/10 10:57:34;;;;;;;5.13;4.22;;;;;;;15.43;52.59;101069.16;6250665;22;20086;-80
2022/12/10 11:00:17;;;;;;;7.93;4.63;;;;;;;15.44;52.46;101081.28;6250625;22;20012;-80
2022/12/10 11:02:42;;;;;;;8.02;4.50;;;;;;;15.45;52.76;101089.91;6250392;22;20091;-80
2022/12/10 11:05:19;;;;;;;4.63;4.10;;;;;;;15.43;52.53;101090.75;6244866;22;20440;-80
2022/12/10 11:07:46;;;;;;;5.50;4.45;;;;;;;15.43;52.58;101090.75;6249076;23;20020;-80
2022/12/10 11:10:20;;;;;;;5.68;4.25;;;;;;;15.43;52.59;101084.72;6222208;23;20425;-79
2022/12/10 11:13:04;;;;;;;5.80;4.25;;;;;;;15.42;52.67;101091.63;6248948;22;20075;-80
2022/12/10 11:15:41;;;;;;;7.28;4.20;;;;;;;15.43;52.60;101082.13;6248115;23;20058;-79
2022/12/10 11:18:34;;;;;;;6.38;4.60;;;;;;;15.43;52.45;101075.19;6248445;22;20302;-80
2022/12/10 11:21:16;;;;;;;5.22;4.50;;;;;;;15.43;52.59;101077.78;6248280;22;20000;-79
2022/12/10 11:23:46;;;;;;;7.10;4.35;;;;;;;15.42;52.56;101068.28;6246969;23;20008;-80
2022/12/10 11:26:36;;;;;;;6.20;4.57;;;;;;;15.42;52.75;101065.69;6248506;22;20004;-80
2022/12/10 11:29:16;;;;;;;5.90;4.80;;;;;;;15.43;52.59;101070.00;6246869;23;20053;-80
2022/12/10 11:32:04;;;;;;;6.30;4.70;;;;;;;15.44;52.60;101070.91;6246476;23;20008;-80
2022/12/10 11:34:50;;;;;;;7.50;4.97;;;;;;;15.46;52.74;101068.28;6246638;23;20027;-80
2022/12/10 11:37:36;;;;;;;10.82;4.63;;;;;;;15.45;52.77;101056.19;6246424;23;20065;-80
2022/12/10 11:40:10;;;;;;;7.78;4.80;;;;;;;15.46;52.59;101060.50;6246708;23;20008;-80
2022/12/10 11:42:58;;;;;;;7.10;4.40;;;;;;;15.46;52.66;101057.91;6246814;23;20039;-80
2022/12/10 11:45:29;;;;;;;5.47;4.32;;;;;;;15.45;52.71;101054.47;6246542;23;20028;-80
2022/12/10 11:48:06;;;;;;;5.60;4.80;;;;;;;15.44;52.70;101044.97;6246858;23;20435;-80
2022/12/10 11:50:55;;;;;;;7.30;4.88;;;;;;;15.44;52.86;101042.38;6246835;23;20313;-80
2022/12/10 11:53:57;;;;;;;6.18;4.50;;;;;;;15.45;52.69;101046.69;6246498;23;20493;-80
2022/12/10 11:56:40;;;;;;;5.63;4.57;;;;;;;15.46;52.80;101043.25;6246669;23;20130;-80
2022/12/10 11:59:08;;;;;;;6.97;4.80;;;;;;;15.46;52.75;101044.94;6272071;22;20011;-80
2022/12/10 12:01:55;;;;;;;4.97;4.40;;;;;;;15.46;52.86;101052.72;6246605;23;20432;-80
2022/12/10 12:05:02;;;;;;;7.85;4.90;;;;;;;15.45;52.89;101054.47;6247591;22;20413;-80
2022/12/10 12:07:38;;;;;;;5.80;5.07;;;;;;;15.45;52.60;101049.28;6230937;22;20020;-77
2022/12/10 12:10:31;;;;;;;7.03;4.47;;;;;;;15.44;52.60;101060.53;6246505;23;20389;-80
2022/12/10 12:13:10;;;;;;;5.50;4.47;;;;;;;15.44;52.71;101055.34;6246360;23;19996;-80
2022/12/10 12:15:43;;;;;;;6.38;5.00;;;;;;;15.43;52.81;101044.06;6246264;23;20000;-80
2022/12/10 12:18:21;;;;;;;7.07;4.57;;;;;;;15.45;52.85;101045.81;6246427;23;20007;-80
2022/12/10 12:20:57;;;;;;;6.65;5.07;;;;;;;15.43;52.68;101051.84;6246373;23;20089;-80
2022/12/10 12:23:33;;;;;;;5.20;4.18;;;;;;;15.45;52.81;101045.81;6246565;23;19996;-80
2022/12/10 12:26:06;;;;;;;5.90;4.80;;;;;;;15.43;53.00;101059.63;6246302;23;20055;-80
2022/12/10 12:28:37;;;;;;;6.67;4.77;;;;;;;15.43;52.70;101059.63;6246436;23;20000;-79
2022/12/10 12:31:08;;;;;;;7.82;4.68;;;;;;;15.44;52.70;101060.53;6246420;23;20000;-79
2022/12/10 12:33:59;;;;;;;5.88;4.65;;;;;;;15.44;52.81;101055.34;6246744;23;20027;-79
2022/12/10 12:36:33;;;;;;;6.32;4.75;;;;;;;15.43;52.81;101049.25;6251001;22;20023;-81
2022/12/10 12:39:04;;;;;;;6.03;4.85;;;;;;;15.44;52.90;101052.75;6254806;22;20069;-81
2022/12/10 12:41:41;;;;;;;5.28;4.70;;;;;;;15.43;52.70;101051.84;6252554;23;20000;-83
2022/12/10 12:44:18;;;;;;;5.88;4.72;;;;;;;15.43;52.70;101051.84;6247762;23;20428;-80
2022/12/10 12:46:46;;;;;;;6.07;5.00;;;;;;;15.43;52.85;101051.00;6246859;23;20031;-81
2022/12/10 12:49:29;;;;;;;5.78;5.13;;;;;;;15.45;52.54;101053.59;6246821;23;20028;-79
2022/12/10 12:52:15;;;;;;;9.80;4.80;;;;;;;15.53;52.84;101052.75;6248572;22;20012;-79
2022/12/10 12:54:41;;;;;;;8.70;5.10;;;;;;;15.53;52.75;101063.13;6246780;23;19996;-79
2022/12/10 12:57:44;;;;;;;10.15;4.45;;;;;;;15.52;53.24;101063.13;6226675;23;20027;-81
2022/12/10 13:00:17;;;;;;;7.43;4.93;;;;;;;15.51;54.47;101051.88;6253930;23;20059;-83
2022/12/10 13:03:00;;;;;;;7.53;5.03;;;;;;;15.55;54.97;101064.00;6253967;22;19996;-82
2022/12/10 13:05:30;;;;;;;8.98;5.20;;;;;;;15.53;56.90;101072.66;6251119;22;20016;-80
2022/12/10 13:08:17;;;;;;;8.20;5.30;;;;;;;15.42;57.58;101094.22;6249289;22;20011;-81
2022/12/10 13:10:47;;;;;;;7.05;5.22;;;;;;;15.27;58.32;101093.31;6251322;23;20000;-81
2022/12/10 13:13:47;;;;;;;7.38;5.47;;;;;;;15.08;60.47;101106.16;6262031;22;19996;-84
2022/12/10 13:16:51;;;;;;;8.65;5.50;;;;;;;14.97;59.12;101100.94;6273410;22;20015;-84
2022/12/10 13:19:20;;;;;;;9.40;5.65;;;;;;;14.95;59.93;101099.19;6268723;23;20011;-83
2022/12/10 13:22:54;;;;;;;6.43;5.32;;;;;;;14.99;60.19;101100.94;6208422;23;19997;-83
2022/12/10 13:26:19;;;;;;;7.50;5.30;;;;;;;14.99;60.84;101101.81;6203868;22;20102;-81
2022/12/10 13:35:12;;;;;;;11.95;6.45;;;;;;;14.95;61.24;101112.16;6259564;22;20024;-84
2022/12/10 13:38:10;;;;;;;9.02;5.90;;;;;;;14.94;61.02;101115.59;6301869;22;20018;-84
2022/12/10 13:44:44;;;;;;;8.63;6.50;;;;;;;14.88;61.91;101106.06;6303509;22;20045;-84
2022/12/10 13:47:26;;;;;;;6.45;5.50;;;;;;;14.91;61.11;101106.06;6302437;22;20026;-85
2022/12/10 13:50:33;;;;;;;6.93;5.82;;;;;;;14.87;61.99;101108.63;6303971;22;20026;-84
2022/12/10 13:53:17;;;;;;;8.95;6.20;;;;;;;14.88;61.67;101111.25;6299672;22;20051;-83
2022/12/10 13:58:27;;;;;;;7.53;6.30;;;;;;;14.84;61.21;101101.72;6273438;22;20027;-82
2022/12/10 14:00:53;;;;;;;;;;;;;;;14.84;61.60;101101.72;6277946;22;20003;-83
2022/12/10 14:04:00;;;;;;;7.03;5.90;;;;;;;14.85;61.25;101099.97;6303221;22;19894;-83
2022/12/10 14:15:22;;;;;;;9.07;6.40;;;;;;;14.89;61.55;101109.50;6324158;22;20093;-85
2022/12/10 14:24:43;;;;;;;9.20;6.90;;;;;;;14.79;60.77;101104.28;6333199;22;20018;-81
2022/12/10 14:27:18;;;;;;;8.65;6.72;;;;;;;14.79;61.91;101111.19;6306332;22;20327;-82
2022/12/10 14:29:50;;;;;;;8.55;6.97;;;;;;;14.80;62.29;101118.09;6334489;22;20016;-81
2022/12/10 14:37:29;;;;;;;9.15;6.82;;;;;;;15.04;60.39;101111.34;6321621;22;20023;-82
2022/12/10 14:39:55;;;;;;;9.55;7.18;;;;;;;15.19;60.64;101109.69;6323281;22;20003;-80
2022/12/10 14:42:22;;;;;;;10.50;7.57;;;;;;;15.08;61.83;101113.94;6293875;22;20004;-81
2022/12/10 14:44:57;;;;;;;10.27;7.25;;;;;;;14.88;62.94;101125.94;6297660;22;20062;-81
2022/12/10 14:47:24;;;;;;;9.10;7.13;;;;;;;14.79;63.93;101134.50;6299759;22;20057;-82
2022/12/10 14:49:53;;;;;;;11.80;7.55;;;;;;;14.71;64.66;101129.25;6252086;22;20014;-80
2022/12/10 14:52:22;;;;;;;9.57;7.72;;;;;;;14.71;65.61;101129.25;6297245;22;20010;-82
2022/12/10 14:54:49;;;;;;;8.57;7.40;;;;;;;14.73;65.56;101127.56;6300988;22;20003;-82
2022/12/10 14:57:29;;;;;;;9.57;7.40;;;;;;;14.75;65.37;101127.56;6324689;22;20031;-82
2022/12/10 15:00:07;;;;;;;10.90;7.65;;;;;;;14.73;66.05;101121.50;6299387;22;20010;-82
2022/12/10 15:02:41;;;;;;;10.05;8.07;;;;;;;14.78;65.48;101117.22;6301082;22;20004;-81
2022/12/10 15:05:13;;;;;;;12.63;8.25;;;;;;;14.76;66.75;101117.22;6298663;22;20062;-81
2022/12/10 15:07:39;;;;;;;10.60;7.60;;;;;;;14.81;65.00;101114.66;6297980;22;20007;-81
2022/12/10 15:10:13;;;;;;;9.55;7.75;;;;;;;14.82;65.40;101122.41;6293801;22;20007;-82
2022/12/10 15:12:47;;;;;;;8.98;7.53;;;;;;;14.79;66.62;101121.56;6291548;22;20010;-81
2022/12/10 15:15:23;;;;;;;12.63;7.80;;;;;;;14.73;65.57;101116.34;6297296;22;20010;-81
2022/12/10 15:18:10;;;;;;;10.18;7.43;;;;;;;14.69;65.78;101112.84;6325469;22;19999;-83
2022/12/10 15:21:04;;;;;;;9.02;7.55;;;;;;;14.69;65.59;101112.84;6292015;22;20007;-81
2022/12/10 15:23:33;;;;;;;9.65;7.15;;;;;;;14.69;66.44;101109.38;6276786;22;20010;-83
2022/12/10 15:26:12;;;;;;;11.43;8.15;;;;;;;14.69;65.73;101119.75;6322783;22;20003;-80
2022/12/10 15:28:42;;;;;;;11.02;7.82;;;;;;;14.67;66.91;101114.56;6326120;22;20004;-82
2022/12/10 15:31:19;;;;;;;10.43;7.63;;;;;;;14.67;65.55;101132.69;6300915;22;20026;-82
2022/12/10 15:34:13;;;;;;;9.82;7.85;;;;;;;14.73;65.57;101124.97;6329924;22;20003;-83
2022/12/10 15:36:51;;;;;;;8.95;7.45;;;;;;;14.71;66.10;101120.63;6330171;22;20020;-83
2022/12/10 15:39:20;;;;;;;10.73;7.88;;;;;;;14.71;66.46;101129.25;6305074;22;20018;-82
2022/12/10 15:45:20;;;;;;;10.32;7.95;;;;;;;14.66;65.97;101130.09;6329824;22;20034;-81
2022/12/10 15:47:47;;;;;;;9.93;7.70;;;;;;;14.71;65.68;101128.41;6327618;22;20003;-81
2022/12/10 15:50:13;;;;;;;11.10;7.80;;;;;;;14.74;65.79;101133.59;6303139;22;20025;-80
2022/12/10 15:52:40;;;;;;;15.68;8.60;;;;;;;14.86;65.71;101135.41;6276278;22;20003;-82
2022/12/10 15:55:32;;;;;;;17.42;9.80;;;;;;;14.54;79.66;101141.19;6257784;22;20034;-82
2022/12/10 15:58:00;;;;;;;12.85;9.05;;;;;;;14.19;83.99;101134.84;6306485;22;19979;-82
2022/12/10 16:03:54;;;;;;;10.95;8.50;;;;;;;13.75;85.58;101145.63;6327250;22;20034;-83
2022/12/10 16:06:23;;;;;;;11.50;8.73;;;;;;;13.65;85.75;101143.75;6302898;22;20044;-82
2022/12/10 16:08:51;;;;;;;10.52;8.32;;;;;;;13.61;86.07;101144.59;6329513;22;20003;-83
2022/12/10 16:11:19;;;;;;;11.73;8.70;;;;;;;13.58;86.23;101154.88;6304087;22;20015;-82
2022/12/10 16:13:55;;;;;;;11.05;8.68;;;;;;;13.53;86.48;101152.25;6331259;22;19999;-82
2022/12/10 16:16:24;;;;;;;14.95;9.35;;;;;;;13.51;86.40;101153.09;6304389;22;20086;-83
2022/12/10 16:19:29;;;;;;;15.23;8.35;;;;;;;13.51;86.35;101151.38;6303289;22;20003;-84
2022/12/10 16:22:16;;;;;;;11.98;8.90;;;;;;;13.49;86.62;101155.66;6304877;22;20030;-83
2022/12/10 16:24:52;;;;;;;16.95;8.95;;;;;;;13.47;86.82;101162.50;6309439;22;20014;-83
2022/12/10 16:27:46;;;;;;;12.38;9.10;;;;;;;13.48;86.90;101165.97;6281084;22;20003;-83
2022/12/10 16:37:21;;;;;;;11.02;9.13;;;;;;;13.49;87.20;101154.78;6327836;22;20050;-83
2022/12/10 16:39:50;;;;;;;12.88;9.32;;;;;;;13.52;87.48;101154.81;6328212;22;20042;-83
2022/12/10 16:42:39;;;;;;;12.95;9.18;;;;;;;13.54;87.24;101153.13;6281701;22;20019;-83
2022/12/10 16:45:35;;;;;;;12.30;9.10;;;;;;;13.53;87.54;101156.56;6305637;22;20023;-83
2022/12/10 16:48:28;;;;;;;12.85;9.38;;;;;;;13.53;87.61;101144.50;6303454;22;20027;-83
2022/12/10 16:50:59;;;;;;;11.52;8.65;;;;;;;13.53;87.69;101143.63;6271528;23;20039;-83
2022/12/10 16:53:35;;;;;;;11.97;9.67;;;;;;;13.54;87.52;101153.13;6243826;23;20012;-82
2022/12/10 16:56:07;;;;;;;13.68;9.48;;;;;;;13.52;87.44;101144.47;6221594;23;20007;-83
2022/12/10 16:59:01;;;;;;;13.23;9.82;;;;;;;13.54;87.55;101153.13;6271255;23;20007;-83
2022/12/10 17:05:45;;;;;;;11.32;9.43;;;;;;;13.51;87.40;101148.78;6271823;23;20015;-83
2022/12/10 17:55:22;;;;;;;14.02;10.45;;;;;;;13.89;81.27;101131.94;6301556;22;20028;-82
2022/12/10 17:57:58;;;;;;;14.88;10.48;;;;;;;13.92;79.94;101124.25;6303835;22;19995;-82
2022/12/10 18:00:30;;;;;;;14.10;10.00;;;;;;;13.96;79.89;101129.47;6300702;22;20000;-81
2022/12/10 18:06:35;;;;;;;14.25;9.48;;;;;;;14.01;78.93;101133.81;6304605;22;20026;-82
2022/12/10 18:12:30;;;;;;;23.95;11.05;;;;;;;14.01;78.47;101141.59;6231377;23;20072;-82
2022/12/10 18:19:00;;;;;;;14.05;10.07;;;;;;;14.04;77.89;101139.00;6242387;22;20004;-83
2022/12/10 20:23:21;;;;;;;14.48;11.38;;;;;;;14.38;69.90;101146.25;6272852;22;20395;-83
2022/12/10 20:25:48;;;;;;;15.45;11.40;;;;;;;14.38;69.90;101145.38;6263016;22;20008;-82
2022/12/10 20:28:16;;;;;;;13.45;10.73;;;;;;;14.42;69.87;101148.88;6268607;22;20392;-82
2022/12/10 20:30:42;;;;;;;14.07;10.63;;;;;;;14.41;69.75;101150.56;6300925;22;19999;-82
2022/12/10 20:33:09;;;;;;;15.20;11.40;;;;;;;14.41;69.25;101150.56;6268860;22;20026;-82
2022/12/10 20:35:37;;;;;;;14.48;10.57;;;;;;;14.40;69.01;101147.13;6291027;22;20015;-82
2022/12/10 20:38:02;;;;;;;14.43;11.05;;;;;;;14.43;68.58;101153.19;6259808;22;20000;-82
2022/12/10 20:40:28;;;;;;;14.68;11.32;;;;;;;14.44;68.43;101153.22;6289115;22;20010;-81
2022/12/10 20:42:54;;;;;;;16.33;11.20;;;;;;;14.46;68.28;101154.09;6258748;22;19996;-82
2022/12/10 20:45:21;;;;;;;15.73;11.60;;;;;;;14.47;68.06;101153.22;6208268;22;20011;-82
2022/12/10 20:47:46;;;;;;;13.60;11.05;;;;;;;14.48;68.13;101154.97;6261980;22;20004;-82
2022/12/10 20:50:17;;;;;;;14.73;10.90;;;;;;;14.49;67.51;101158.41;6256858;22;20062;-82
2022/12/10 20:52:44;;;;;;;12.30;9.93;;;;;;;14.49;67.31;101154.09;6259764;22;19999;-82
2022/12/10 20:55:11;;;;;;;13.88;10.75;;;;;;;14.52;67.07;101163.63;6258194;22;20064;-82
2022/12/10 20:57:36;;;;;;;11.63;9.60;;;;;;;14.52;66.86;101161.88;6284185;22;20000;-81
2022/12/10 21:00:06;;;;;;;13.00;9.70;;;;;;;14.53;66.98;101160.19;6255456;22;20019;-82
2022/12/10 21:02:32;;;;;;;13.50;10.13;;;;;;;14.53;66.97;101158.44;6257154;22;20003;-82
2022/12/10 21:04:59;;;;;;;13.52;9.25;;;;;;;14.53;66.65;101157.59;6208222;22;20059;-83
2022/12/10 21:07:25;;;;;;;12.50;9.75;;;;;;;14.54;66.67;101161.91;6242696;22;20018;-82
2022/12/10 21:09:53;;;;;;;12.82;9.93;;;;;;;14.55;66.39;101163.69;6266931;22;20375;-82
2022/12/10 21:12:19;;;;;;;10.77;9.23;;;;;;;14.54;66.42;101167.94;6259128;22;20392;-82
2022/12/10 21:14:44;;;;;;;11.23;9.25;;;;;;;14.55;66.09;101163.69;6255226;22;20014;-81
2022/12/10 21:17:13;;;;;;;12.13;9.65;;;;;;;14.56;66.16;101163.69;6284833;22;20432;-83
2022/12/10 21:19:41;;;;;;;10.85;9.15;;;;;;;14.55;66.29;101161.09;6289402;22;19995;-82
2022/12/10 21:22:15;;;;;;;11.48;8.82;;;;;;;14.58;66.17;101169.75;6295234;22;20000;-80
2022/12/10 21:24:41;;;;;;;10.75;8.57;;;;;;;14.58;66.29;101167.16;6292162;22;20007;-80
2022/12/10 21:27:06;;;;;;;10.82;8.30;;;;;;;14.63;66.76;101174.09;6317275;22;20068;-80
2022/12/10 21:29:32;;;;;;;11.32;9.00;;;;;;;14.64;66.19;101173.25;6290837;22;20035;-80
2022/12/10 21:31:57;;;;;;;11.02;8.52;;;;;;;14.65;66.59;101172.38;6317799;22;20030;-80
2022/12/10 21:34:24;;;;;;;11.15;8.45;;;;;;;14.67;66.29;101173.28;6297014;22;20064;-82
2022/12/10 21:36:50;;;;;;;11.40;7.95;;;;;;;14.70;66.43;101173.28;6297148;22;20016;-80
2022/12/10 21:39:56;;;;;;;10.13;8.15;;;;;;;14.70;66.01;101170.69;6265178;22;20035;-81
2022/12/10 21:45:06;;;;;;;9.57;7.95;;;;;;;14.70;66.20;101162.91;6252228;23;20015;-79
2022/12/10 21:47:32;;;;;;;9.95;8.02;;;;;;;14.71;65.93;101172.44;6199638;23;20008;-80
2022/12/10 21:49:57;;;;;;;9.93;8.15;;;;;;;14.69;65.67;101167.25;6257677;23;20011;-80
2022/12/10 21:52:23;;;;;;;9.35;7.93;;;;;;;14.69;65.66;101164.66;6257334;23;20015;-80
2022/12/10 21:54:48;;;;;;;9.30;8.18;;;;;;;14.69;65.97;101175.00;6253822;23;20449;-80
2022/12/10 21:57:16;;;;;;;9.38;7.72;;;;;;;14.68;65.94;101167.25;6234374;23;20012;-81
2022/12/10 21:59:41;;;;;;;10.10;8.43;;;;;;;14.68;65.85;101172.44;6202566;23;20011;-79
2022/12/10 22:02:08;;;;;;;8.82;7.70;;;;;;;14.70;65.67;101173.28;6224966;23;20000;-80
2022/12/10 22:04:35;;;;;;;9.43;8.00;;;;;;;14.69;65.62;101164.66;6253534;23;20030;-79
2022/12/10 22:07:01;;;;;;;10.18;7.82;;;;;;;14.69;65.73;101171.56;6255884;23;20004;-79
2022/12/10 22:09:26;;;;;;;9.15;7.70;;;;;;;14.69;65.43;101167.25;6231867;22;20066;-78
2022/12/10 22:11:51;;;;;;;8.70;6.90;;;;;;;14.70;65.37;101174.16;6220532;23;20016;-78
2022/12/10 22:14:17;;;;;;;10.65;7.57;;;;;;;14.69;65.77;101168.97;6196771;23;20004;-78
2022/12/10 22:16:42;;;;;;;8.70;7.80;;;;;;;14.69;65.76;101167.25;6197190;23;20008;-78
2022/12/10 22:19:27;;;;;;;21.08;12.75;;;;;;;14.68;66.80;101177.59;6232641;23;20004;-81
2022/12/10 22:21:52;;;;;;;17.02;12.30;;;;;;;14.55;67.21;101167.13;6286179;22;20441;-79
2022/12/10 22:24:17;;;;;;;16.95;11.57;;;;;;;14.42;68.11;101167.00;6226196;22;20042;-79
2022/12/10 22:26:43;;;;;;;14.13;10.80;;;;;;;14.33;69.01;101163.47;6251707;22;20420;-80
2022/12/10 22:29:08;;;;;;;15.20;11.55;;;;;;;14.31;69.00;101169.50;6252667;22;20007;-79
2022/12/10 22:31:34;;;;;;;17.70;10.75;;;;;;;14.29;69.37;101171.19;6250443;22;20066;-78
2022/12/10 22:33:59;;;;;;;15.55;10.65;;;;;;;14.28;69.09;101170.31;6250886;22;20000;-79
2022/12/10 22:36:24;;;;;;;12.07;10.27;;;;;;;14.30;69.68;101171.19;6225215;22;20015;-78
2022/12/10 22:38:50;;;;;;;14.50;10.48;;;;;;;14.29;69.57;101171.19;6250110;22;20007;-79
2022/12/10 22:41:15;;;;;;;12.75;10.25;;;;;;;14.30;69.58;101166.00;6250164;22;20432;-78